Aviation Digital Data Service (ADDS)

Output produced by METARs form (0103 UTC 24 May 2022)
found at http://www.aviationweather.gov/metar/data/
 
KGBD 240102Z 2401/2424 11008KT P6SM VCSH OVC040 
     FM240600 07008KT 6SM SHRA BR OVC013 
     FM240900 05009KT 4SM SHRA BR OVC005 
     FM241800 03014KT 3SM -SHRA BR OVC006 
     FM241900 03014G22KT 3SM -SHRA BR OVC004
       
KGCC 240026Z 2400/2424 21011KT P6SM SCT050 BKN100 
     TEMPO 2400/2401 5SM -SHRA BKN040 
     FM240300 16006KT P6SM SCT100 
     FM240500 19007KT P6SM FEW250 
     FM241700 11008KT P6SM SCT150
       
KGCK 240006Z 2400/2424 08007KT P6SM VCSH OVC026 
     FM240300 09011KT 4SM SHRA BR VCTS OVC013CB 
     FM240600 06013KT 4SM -SHRA BR OVC004
       
KGCN 232320Z 2400/2424 30010G20KT P6SM BKN100 
     FM240200 30007KT P6SM FEW250 
     FM240500 VRB05KT P6SM FEW250 
     FM241500 03007KT P6SM SKC 
     FM241900 33011G17KT P6SM SKC
       
KGDV 232320Z 2400/2424 VRB06KT P6SM VCSH SCT050 
     FM240100 VRB04KT P6SM SKC 
     FM241800 11008KT P6SM SCT070
       
KGEG 232334Z 2400/2424 23012KT P6SM -SHRA BKN060 BKN090 
     TEMPO 2401/2403 5SM -TSRA BKN050CB OVC090 
     FM240400 21007KT P6SM SCT030 BKN080 
     FM241200 18006KT P6SM BCFG SCT015 BKN060 
     FM241700 21008KT P6SM BKN060
       
TAF KGFA 232000Z 2320/2502 23009KT 9999 SCT090 QNH2993INS 
     TEMPO 2321/2324 23012G18KT VCSH BKN080 TX18/2321Z TN06/2408Z
       
KGFK 232330Z 2400/2424 20011G20KT P6SM BKN070 
     FM240100 18010KT P6SM VCSH BKN070 
     TEMPO 2402/2406 -SHRA 
     FM240600 19009KT P6SM FEW250 
     FM241700 21014G23KT P6SM SCT100
       
KGFL 232323Z 2400/2424 03005KT P6SM FEW060 BKN200 
     FM241400 14005KT P6SM SCT060
       
KGGG 232339Z 2400/2424 09007KT P6SM OVC015 
     FM240900 11007KT P6SM OVC007 
     FM241600 14010KT P6SM VCTS OVC013CB 
     FM242200 17011KT 6SM -RA BR BKN025 BKN050
       
KGGW 232320Z 2400/2424 10007KT P6SM SKC 
     FM241700 16009KT P6SM SCT100
       
KGJT 232344Z 2400/2424 27008KT P6SM SCT120 BKN200 
     FM240200 35008KT P6SM SCT100 BKN200 
     FM240400 02005KT P6SM SCT100 BKN200 
     FM240600 VRB04KT P6SM SCT100 BKN200 
     FM241900 31012G21KT P6SM FEW080 SCT200
       
KGKY 232345Z 2400/2424 10009KT P6SM BKN040 
     FM240400 11012KT P6SM VCSH BKN035 
     TEMPO 2408/2412 5SM -TSRA BKN015CB 
     FM241500 14010KT P6SM OVC010 
     FM241800 16012KT P6SM OVC020
       
KGLD 232320Z 2400/2424 13009KT P6SM BKN040 
     FM240500 08009KT P6SM OVC030 
     FM240600 08009KT 3SM BR VCSH OVC007 
     FM241600 02014G23KT 2SM SHRA BR OVC006 
     FM242300 02016G25KT P6SM OVC007
       
KGLH 232344Z 2400/2424 03009KT P6SM BKN015 OVC025 
     FM241400 14010KT P6SM VCSH BKN020 
     FM241800 16015G24KT P6SM -TSRA BKN035CB
       
KGLS 232336Z 2400/2424 07009KT P6SM BKN025 
     FM240200 11016KT P6SM BKN025 
     FM240900 15015KT 6SM SHRA BR VCTS BKN015CB 
     TEMPO 2412/2415 VRB25KT 3SM TSRA BR 
     FM241700 19017KT P6SM VCTS BKN040CB
       
KGMU 232335Z 2400/2424 20010G18KT P6SM VCSH FEW008 SCT015 BKN040 
     FM240200 19008KT P6SM VCSH OVC008 
     FM240600 22005KT P6SM OVC005 
     FM241500 17004KT P6SM BKN008 
     FM241800 17004KT P6SM BKN027 
     PROB30 2422/2424 4SM -SHRA BR OVC015
       
KGNV 232336Z 2400/2424 VRB05KT P6SM SCT050 BKN250 
     TEMPO 2409/2412 5SM BR SCT012 BKN020 
     FM241400 16007KT P6SM SCT025 SCT150
       
KGON 232322Z 2400/2424 16004KT P6SM SCT250 
     FM240100 VRB03KT P6SM FEW150 BKN250 
     FM240600 03005KT P6SM BKN100 
     FM241200 05010KT P6SM BKN100 
     FM241600 09011KT P6SM SCT120 BKN250 
     FM241900 13011KT P6SM SCT120 BKN250
       
KGPT 240054Z 2401/2424 12004KT P6SM SCT050 
     FM240200 12005KT P6SM FEW025 BKN060 
     FM240600 VRB03KT P6SM VCTS SCT025CB BKN035 
     FM241300 13012KT P6SM VCSH BKN050
       
KGRB 232320Z 2400/2424 12006KT P6SM SCT050 BKN250 
     FM240200 VRB03KT P6SM BKN200 
     FM241500 09007KT P6SM SCT060
       
TAF KGRF 232100Z 2321/2503 30007KT 9999 BKN040 QNH3013INS 
     BECMG 2408/2409 33005KT 9999 VCSH OVC015 QNH3012INS 
     BECMG 2411/2412 25004KT 6000 BR OVC008 QNH3010INS 
     TEMPO 2412/2416 0800 FG 
     BECMG 2416/2417 23003KT 9999 NSW BKN020 620756 QNH3008INS 
     BECMG 2419/2420 23002KT 9999 BKN090 620906 QNH2999INS TX18/2400Z TN09/2413Z
       
KGRI 232333Z 2400/2424 15010KT P6SM VCSH OVC050 
     FM240200 VRB05KT P6SM OVC050 
     FM241700 07014G20KT P6SM -SHRA SCT015 OVC030 
     FM241900 06015G20KT 5SM SHRA BR SCT010 OVC020
       
TAF KGRK 240000Z 2400/2506 12012G18KT 9999 BKN035 QNH2990INS 
     TEMPO 2400/2401 12010G20KT 8000 -TSRA BKN025CB 
     BECMG 2401/2402 11012KT 8000 -SHRA BKN035 QNH2985INS 
     TEMPO 2404/2412 12010G20KT 4800 -TSRA BKN015CB 
     BECMG 2412/2413 15009KT 8000 -SHRA BKN015 QNH2981INS 
     BECMG 2417/2418 16015G25KT 8000 -SHRA BKN025 QNH2977INS 
     BECMG 2501/2502 17012KT 8000 -SHRA BKN015 QNH2965INS TX27/2500Z TN24/2410Z
       
KGRR 232325Z 2400/2424 08007KT P6SM BKN250
       
TAF AMD KGSB 232340Z 2323/2502 10008KT 8000 BR SCT008 BKN017 QNH3006INS 
     BECMG 2400/2401 10010KT 8000 BR OVC008 QNH3005INS 
     BECMG 2406/2407 10008KT 3200 -SHRA OVC004 QNH3003INS 
     TEMPO 2414/2416 VRB15G30KT 2400 TSRA OVC003CB 
     BECMG 2415/2416 18006KT 8000 -SHRA OVC020 QNH3003INS 
     TEMPO 2416/2422 VRB15G30KT 2400 TSRA OVC003CB 
     BECMG 2423/2424 35010KT 8000 BR OVC005 QNH3010INS TX26/2420Z TN20/2411Z
       
KGSO 232332Z 2400/2424 05012G15KT P6SM -RA BKN005 OVC015 
     TEMPO 2400/2404 2SM +SHRA BR SCT005 OVC015 
     FM240600 04009KT 5SM BR VCSH OVC004 
     FM241300 03010KT 6SM BR OVC008 
     FM241600 03010KT P6SM OVC012
       
KGSP 232335Z 2400/2424 20010G18KT P6SM VCSH FEW008 SCT015 BKN035 
     FM240200 20010KT P6SM OVC007 
     FM240500 21006KT P6SM OVC004 
     FM241400 21003KT P6SM BKN006 
     FM241800 18004KT P6SM BKN015 
     FM242200 08006KT P6SM SCT015 BKN025 
     PROB30 2422/2424 4SM -SHRA BR OVC015
       
TAF KGTB 231700Z 2317/2423 VRB06KT 9999 SCT060 QNH3029INS TX17/2417Z TN07/2409Z
       
KGTF 232324Z 2400/2424 22011KT P6SM SCT100
       
KGTR 232344Z 2400/2424 36008KT P6SM SCT020 BKN030 
     FM240600 13007KT P6SM BKN008 BKN015 
     FM241800 15012G18KT P6SM VCTS BKN035CB
       
KGUC 232344Z 2400/2424 25012G20KT P6SM SCT100 BKN200 
     FM240200 32005KT P6SM SCT100 BKN200 
     FM240400 35005KT P6SM SCT080 BKN100 
     FM241500 25006KT P6SM SCT060 BKN080 
     FM241700 28010KT P6SM SCT060 BKN070 
     FM242000 32016G24KT P6SM VCSH BKN060
       
KGUP 232336Z 2400/2424 34010KT P6SM VCSH SCT060 BKN080 
     TEMPO 2400/2402 VRB20G35KT 6SM -SHRA OVC060 
     FM240200 09006KT P6SM SCT090 
     FM240600 VRB03KT P6SM FEW100 
     FM241500 27012KT P6SM SKC 
     FM242100 32020G32KT P6SM FEW120
       
TAF COR KGUS 232106Z 2321/2503 05010G15KT 9999 FEW040 BKN200 QNH3015INS 
     TEMPO 2321/2323 04015G25KT 
     BECMG 2403/2404 07009KT 9999 BKN040 BKN200 QNH3015INS 
     BECMG 2413/2414 08012G18KT 9999 FEW060 SCT200 QNH3015INS TX22/2420Z
TN07/2412Z LAST NO AMDS AFT 2403 NEXT 2413
       
KGWO 232344Z 2400/2424 05005KT P6SM BKN015 OVC025 
     FM241400 12010KT P6SM VCSH BKN020 
     FM241800 15015G24KT P6SM -TSRA VCTS BKN035CB
       
KGYY 232330Z 2400/2424 01011KT P6SM FEW060 OVC150 
     FM240300 05006KT P6SM FEW060 BKN150 
     FM241400 06011KT P6SM SCT070 BKN150